sensor_id;sensor_type;location;lat;lon;timestamp;P1;durP1;ratioP1;P2;durP2;ratioP2
39362;SDS011;25088;43.238;23.110;2023-04-16T00:00:30;0.10;;;0.10;;
39362;SDS011;25088;43.238;23.110;2023-04-16T00:02:55;0.10;;;0.10;;
39362;SDS011;25088;43.238;23.110;2023-04-16T00:05:20;0.10;;;0.10;;
39362;SDS011;25088;43.238;23.110;2023-04-16T00:07:46;0.10;;;0.10;;
39362;SDS011;25088;43.238;23.110;2023-04-16T00:10:12;0.10;;;0.10;;
39362;SDS011;25088;43.238;23.110;2023-04-16T00:12:38;0.15;;;0.15;;
39362;SDS011;25088;43.238;23.110;2023-04-16T00:15:03;0.10;;;0.10;;
39362;SDS011;25088;43.238;23.110;2023-04-16T00:17:29;0.10;;;0.10;;
39362;SDS011;25088;43.238;23.110;2023-04-16T00:19:55;0.10;;;0.10;;
39362;SDS011;25088;43.238;23.110;2023-04-16T00:22:20;0.10;;;0.10;;
39362;SDS011;25088;43.238;23.110;2023-04-16T00:24:46;0.10;;;0.10;;
39362;SDS011;25088;43.238;23.110;2023-04-16T00:27:11;0.10;;;0.10;;
39362;SDS011;25088;43.238;23.110;2023-04-16T00:29:37;0.10;;;0.10;;
39362;SDS011;25088;43.238;23.110;2023-04-16T00:32:02;0.20;;;0.20;;
39362;SDS011;25088;43.238;23.110;2023-04-16T00:34:27;0.10;;;0.10;;
39362;SDS011;25088;43.238;23.110;2023-04-16T00:36:53;0.10;;;0.10;;
39362;SDS011;25088;43.238;23.110;2023-04-16T00:39:18;0.20;;;0.20;;
39362;SDS011;25088;43.238;23.110;2023-04-16T00:41:44;0.20;;;0.20;;
39362;SDS011;25088;43.238;23.110;2023-04-16T00:44:10;0.20;;;0.20;;
39362;SDS011;25088;43.238;23.110;2023-04-16T00:46:35;0.10;;;0.10;;
39362;SDS011;25088;43.238;23.110;2023-04-16T00:49:01;0.10;;;0.10;;
39362;SDS011;25088;43.238;23.110;2023-04-16T00:51:28;0.20;;;0.20;;
39362;SDS011;25088;43.238;23.110;2023-04-16T00:53:53;0.20;;;0.20;;
39362;SDS011;25088;43.238;23.110;2023-04-16T00:56:20;0.10;;;0.10;;
39362;SDS011;25088;43.238;23.110;2023-04-16T00:58:48;0.20;;;0.20;;
39362;SDS011;25088;43.238;23.110;2023-04-16T01:01:13;0.20;;;0.20;;
39362;SDS011;25088;43.238;23.110;2023-04-16T01:03:41;0.13;;;0.13;;
39362;SDS011;25088;43.238;23.110;2023-04-16T01:06:11;0.20;;;0.20;;
39362;SDS011;25088;43.238;23.110;2023-04-16T01:08:37;0.20;;;0.20;;
39362;SDS011;25088;43.238;23.110;2023-04-16T01:11:03;0.20;;;0.20;;
39362;SDS011;25088;43.238;23.110;2023-04-16T01:13:29;0.20;;;0.20;;
39362;SDS011;25088;43.238;23.110;2023-04-16T01:15:55;0.20;;;0.20;;
39362;SDS011;25088;43.238;23.110;2023-04-16T01:18:21;0.20;;;0.20;;
39362;SDS011;25088;43.238;23.110;2023-04-16T01:20:47;0.20;;;0.20;;
39362;SDS011;25088;43.238;23.110;2023-04-16T01:23:13;0.20;;;0.20;;
39362;SDS011;25088;43.238;23.110;2023-04-16T01:25:40;0.20;;;0.20;;
39362;SDS011;25088;43.238;23.110;2023-04-16T01:28:06;0.20;;;0.20;;
39362;SDS011;25088;43.238;23.110;2023-04-16T01:30:31;0.20;;;0.20;;
39362;SDS011;25088;43.238;23.110;2023-04-16T01:32:57;0.20;;;0.20;;
39362;SDS011;25088;43.238;23.110;2023-04-16T01:35:23;0.20;;;0.20;;
39362;SDS011;25088;43.238;23.110;2023-04-16T01:37:49;0.20;;;0.20;;
39362;SDS011;25088;43.238;23.110;2023-04-16T01:40:15;0.20;;;0.20;;
39362;SDS011;25088;43.238;23.110;2023-04-16T01:42:42;0.20;;;0.20;;
39362;SDS011;25088;43.238;23.110;2023-04-16T01:45:07;0.20;;;0.20;;
39362;SDS011;25088;43.238;23.110;2023-04-16T01:47:33;0.20;;;0.20;;
39362;SDS011;25088;43.238;23.110;2023-04-16T01:49:59;0.20;;;0.20;;
39362;SDS011;25088;43.238;23.110;2023-04-16T01:52:25;0.20;;;0.20;;
39362;SDS011;25088;43.238;23.110;2023-04-16T01:54:50;0.20;;;0.20;;
39362;SDS011;25088;43.238;23.110;2023-04-16T01:57:16;0.20;;;0.20;;
39362;SDS011;25088;43.238;23.110;2023-04-16T01:59:41;0.20;;;0.20;;
39362;SDS011;25088;43.238;23.110;2023-04-16T02:02:10;0.20;;;0.20;;
39362;SDS011;25088;43.238;23.110;2023-04-16T02:04:40;0.20;;;0.20;;
39362;SDS011;25088;43.238;23.110;2023-04-16T02:07:08;0.20;;;0.20;;
39362;SDS011;25088;43.238;23.110;2023-04-16T02:09:34;0.20;;;0.20;;
39362;SDS011;25088;43.238;23.110;2023-04-16T02:12:00;0.20;;;0.20;;
39362;SDS011;25088;43.238;23.110;2023-04-16T02:14:27;0.20;;;0.20;;
39362;SDS011;25088;43.238;23.110;2023-04-16T02:16:53;0.20;;;0.20;;
39362;SDS011;25088;43.238;23.110;2023-04-16T02:19:18;0.20;;;0.20;;
39362;SDS011;25088;43.238;23.110;2023-04-16T02:21:44;0.20;;;0.20;;
39362;SDS011;25088;43.238;23.110;2023-04-16T02:24:10;0.20;;;0.20;;
39362;SDS011;25088;43.238;23.110;2023-04-16T02:26:35;0.20;;;0.20;;
39362;SDS011;25088;43.238;23.110;2023-04-16T02:29:01;0.20;;;0.20;;
39362;SDS011;25088;43.238;23.110;2023-04-16T02:31:26;0.10;;;0.10;;
39362;SDS011;25088;43.238;23.110;2023-04-16T02:33:52;0.20;;;0.20;;
39362;SDS011;25088;43.238;23.110;2023-04-16T02:36:18;0.20;;;0.20;;
39362;SDS011;25088;43.238;23.110;2023-04-16T02:38:44;0.20;;;0.20;;
39362;SDS011;25088;43.238;23.110;2023-04-16T02:41:10;0.20;;;0.20;;
39362;SDS011;25088;43.238;23.110;2023-04-16T02:43:35;0.20;;;0.20;;
39362;SDS011;25088;43.238;23.110;2023-04-16T02:46:00;0.10;;;0.10;;
39362;SDS011;25088;43.238;23.110;2023-04-16T02:48:26;0.20;;;0.20;;
39362;SDS011;25088;43.238;23.110;2023-04-16T02:50:51;0.20;;;0.20;;
39362;SDS011;25088;43.238;23.110;2023-04-16T02:53:17;0.20;;;0.20;;
39362;SDS011;25088;43.238;23.110;2023-04-16T02:55:48;0.10;;;0.10;;
39362;SDS011;25088;43.238;23.110;2023-04-16T02:58:18;0.20;;;0.20;;
39362;SDS011;25088;43.238;23.110;2023-04-16T03:00:48;0.10;;;0.10;;
39362;SDS011;25088;43.238;23.110;2023-04-16T03:03:14;0.20;;;0.20;;
39362;SDS011;25088;43.238;23.110;2023-04-16T03:05:40;0.20;;;0.20;;
39362;SDS011;25088;43.238;23.110;2023-04-16T03:08:05;0.20;;;0.20;;
39362;SDS011;25088;43.238;23.110;2023-04-16T03:10:31;0.20;;;0.20;;
39362;SDS011;25088;43.238;23.110;2023-04-16T03:12:57;0.20;;;0.20;;
39362;SDS011;25088;43.238;23.110;2023-04-16T03:15:22;0.20;;;0.20;;
39362;SDS011;25088;43.238;23.110;2023-04-16T03:17:49;0.20;;;0.20;;
39362;SDS011;25088;43.238;23.110;2023-04-16T03:20:15;0.20;;;0.20;;
39362;SDS011;25088;43.238;23.110;2023-04-16T03:22:44;0.20;;;0.20;;
39362;SDS011;25088;43.238;23.110;2023-04-16T03:25:10;0.20;;;0.20;;
39362;SDS011;25088;43.238;23.110;2023-04-16T03:27:36;0.20;;;0.20;;
39362;SDS011;25088;43.238;23.110;2023-04-16T03:30:03;0.20;;;0.20;;
39362;SDS011;25088;43.238;23.110;2023-04-16T03:32:30;0.20;;;0.20;;
39362;SDS011;25088;43.238;23.110;2023-04-16T03:34:55;0.20;;;0.20;;
39362;SDS011;25088;43.238;23.110;2023-04-16T03:37:21;0.20;;;0.20;;
39362;SDS011;25088;43.238;23.110;2023-04-16T03:39:47;0.10;;;0.10;;
39362;SDS011;25088;43.238;23.110;2023-04-16T03:42:12;0.20;;;0.20;;
39362;SDS011;25088;43.238;23.110;2023-04-16T03:44:37;0.20;;;0.20;;
39362;SDS011;25088;43.238;23.110;2023-04-16T03:47:03;0.20;;;0.20;;
39362;SDS011;25088;43.238;23.110;2023-04-16T03:49:28;0.20;;;0.20;;
39362;SDS011;25088;43.238;23.110;2023-04-16T03:51:54;0.20;;;0.20;;
39362;SDS011;25088;43.238;23.110;2023-04-16T03:54:19;0.20;;;0.20;;
39362;SDS011;25088;43.238;23.110;2023-04-16T03:56:45;0.10;;;0.10;;
39362;SDS011;25088;43.238;23.110;2023-04-16T03:59:10;0.17;;;0.17;;
39362;SDS011;25088;43.238;23.110;2023-04-16T04:01:35;0.10;;;0.10;;
39362;SDS011;25088;43.238;23.110;2023-04-16T04:04:01;0.10;;;0.10;;
39362;SDS011;25088;43.238;23.110;2023-04-16T04:06:27;0.20;;;0.20;;
39362;SDS011;25088;43.238;23.110;2023-04-16T04:08:52;0.20;;;0.20;;
39362;SDS011;25088;43.238;23.110;2023-04-16T04:11:18;0.20;;;0.20;;
39362;SDS011;25088;43.238;23.110;2023-04-16T04:13:44;0.20;;;0.20;;
39362;SDS011;25088;43.238;23.110;2023-04-16T04:16:09;0.20;;;0.20;;
39362;SDS011;25088;43.238;23.110;2023-04-16T04:18:35;0.17;;;0.17;;
39362;SDS011;25088;43.238;23.110;2023-04-16T04:21:04;0.10;;;0.10;;
39362;SDS011;25088;43.238;23.110;2023-04-16T04:23:30;0.20;;;0.20;;
39362;SDS011;25088;43.238;23.110;2023-04-16T04:25:56;0.10;;;0.10;;
39362;SDS011;25088;43.238;23.110;2023-04-16T04:28:21;0.10;;;0.10;;
39362;SDS011;25088;43.238;23.110;2023-04-16T04:30:47;0.20;;;0.20;;
39362;SDS011;25088;43.238;23.110;2023-04-16T04:33:12;0.10;;;0.10;;
39362;SDS011;25088;43.238;23.110;2023-04-16T04:35:38;0.10;;;0.10;;
39362;SDS011;25088;43.238;23.110;2023-04-16T04:38:03;0.20;;;0.20;;
39362;SDS011;25088;43.238;23.110;2023-04-16T04:40:29;0.20;;;0.20;;
39362;SDS011;25088;43.238;23.110;2023-04-16T04:42:54;0.20;;;0.20;;
39362;SDS011;25088;43.238;23.110;2023-04-16T04:45:20;0.20;;;0.20;;
39362;SDS011;25088;43.238;23.110;2023-04-16T04:47:45;0.10;;;0.10;;
39362;SDS011;25088;43.238;23.110;2023-04-16T04:50:10;0.20;;;0.20;;
39362;SDS011;25088;43.238;23.110;2023-04-16T04:52:36;0.20;;;0.20;;
39362;SDS011;25088;43.238;23.110;2023-04-16T04:55:01;0.10;;;0.10;;
39362;SDS011;25088;43.238;23.110;2023-04-16T04:57:27;0.10;;;0.10;;
39362;SDS011;25088;43.238;23.110;2023-04-16T04:59:53;0.10;;;0.10;;
39362;SDS011;25088;43.238;23.110;2023-04-16T05:02:18;0.10;;;0.10;;
39362;SDS011;25088;43.238;23.110;2023-04-16T05:04:43;0.10;;;0.10;;
39362;SDS011;25088;43.238;23.110;2023-04-16T05:07:09;0.10;;;0.10;;
39362;SDS011;25088;43.238;23.110;2023-04-16T05:09:34;0.10;;;0.10;;
39362;SDS011;25088;43.238;23.110;2023-04-16T05:12:00;0.10;;;0.10;;
39362;SDS011;25088;43.238;23.110;2023-04-16T05:14:25;0.10;;;0.10;;
39362;SDS011;25088;43.238;23.110;2023-04-16T05:16:51;0.10;;;0.10;;
39362;SDS011;25088;43.238;23.110;2023-04-16T05:19:16;0.10;;;0.10;;
39362;SDS011;25088;43.238;23.110;2023-04-16T05:21:42;0.10;;;0.10;;
39362;SDS011;25088;43.238;23.110;2023-04-16T05:24:07;0.10;;;0.10;;
39362;SDS011;25088;43.238;23.110;2023-04-16T05:26:33;0.10;;;0.10;;
39362;SDS011;25088;43.238;23.110;2023-04-16T05:28:58;0.10;;;0.10;;
39362;SDS011;25088;43.238;23.110;2023-04-16T05:31:24;0.10;;;0.10;;
39362;SDS011;25088;43.238;23.110;2023-04-16T05:33:49;0.10;;;0.10;;
39362;SDS011;25088;43.238;23.110;2023-04-16T05:36:15;0.10;;;0.10;;
39362;SDS011;25088;43.238;23.110;2023-04-16T05:38:40;0.10;;;0.10;;
39362;SDS011;25088;43.238;23.110;2023-04-16T05:41:06;0.10;;;0.10;;
39362;SDS011;25088;43.238;23.110;2023-04-16T05:43:31;0.10;;;0.10;;
39362;SDS011;25088;43.238;23.110;2023-04-16T05:45:57;0.10;;;0.10;;
39362;SDS011;25088;43.238;23.110;2023-04-16T05:48:22;0.10;;;0.10;;
39362;SDS011;25088;43.238;23.110;2023-04-16T05:50:47;0.10;;;0.10;;
39362;SDS011;25088;43.238;23.110;2023-04-16T05:53:13;0.10;;;0.10;;
39362;SDS011;25088;43.238;23.110;2023-04-16T05:55:39;0.10;;;0.10;;
39362;SDS011;25088;43.238;23.110;2023-04-16T05:58:04;0.10;;;0.10;;
39362;SDS011;25088;43.238;23.110;2023-04-16T06:00:30;0.10;;;0.10;;
39362;SDS011;25088;43.238;23.110;2023-04-16T06:02:57;0.10;;;0.10;;
39362;SDS011;25088;43.238;23.110;2023-04-16T06:05:22;0.10;;;0.10;;
39362;SDS011;25088;43.238;23.110;2023-04-16T06:07:49;0.10;;;0.10;;
39362;SDS011;25088;43.238;23.110;2023-04-16T06:10:14;0.10;;;0.10;;
39362;SDS011;25088;43.238;23.110;2023-04-16T06:12:40;0.10;;;0.10;;
39362;SDS011;25088;43.238;23.110;2023-04-16T06:15:05;0.10;;;0.10;;
39362;SDS011;25088;43.238;23.110;2023-04-16T06:17:31;0.10;;;0.10;;
39362;SDS011;25088;43.238;23.110;2023-04-16T06:19:57;0.10;;;0.10;;
39362;SDS011;25088;43.238;23.110;2023-04-16T06:22:22;0.10;;;0.10;;
39362;SDS011;25088;43.238;23.110;2023-04-16T06:24:48;0.10;;;0.10;;
39362;SDS011;25088;43.238;23.110;2023-04-16T06:27:14;0.10;;;0.10;;
39362;SDS011;25088;43.238;23.110;2023-04-16T06:29:40;0.10;;;0.10;;
39362;SDS011;25088;43.238;23.110;2023-04-16T06:32:05;0.10;;;0.10;;
39362;SDS011;25088;43.238;23.110;2023-04-16T06:34:31;0.00;;;0.00;;
39362;SDS011;25088;43.238;23.110;2023-04-16T06:36:57;0.03;;;0.03;;
39362;SDS011;25088;43.238;23.110;2023-04-16T06:39:22;0.08;;;0.08;;
39362;SDS011;25088;43.238;23.110;2023-04-16T06:41:48;0.10;;;0.10;;
39362;SDS011;25088;43.238;23.110;2023-04-16T06:44:13;0.10;;;0.10;;
39362;SDS011;25088;43.238;23.110;2023-04-16T06:46:39;0.10;;;0.10;;
39362;SDS011;25088;43.238;23.110;2023-04-16T06:49:05;0.00;;;0.00;;
39362;SDS011;25088;43.238;23.110;2023-04-16T06:51:31;0.00;;;0.00;;
39362;SDS011;25088;43.238;23.110;2023-04-16T06:53:57;0.00;;;0.00;;
39362;SDS011;25088;43.238;23.110;2023-04-16T06:56:22;0.00;;;0.00;;
39362;SDS011;25088;43.238;23.110;2023-04-16T06:58:48;0.00;;;0.00;;
39362;SDS011;25088;43.238;23.110;2023-04-16T07:01:14;0.10;;;0.10;;
39362;SDS011;25088;43.238;23.110;2023-04-16T07:03:40;0.10;;;0.10;;
39362;SDS011;25088;43.238;23.110;2023-04-16T07:06:06;0.00;;;0.00;;
39362;SDS011;25088;43.238;23.110;2023-04-16T07:08:31;0.00;;;0.00;;
39362;SDS011;25088;43.238;23.110;2023-04-16T07:10:57;0.00;;;0.00;;
39362;SDS011;25088;43.238;23.110;2023-04-16T07:13:22;0.00;;;0.00;;
39362;SDS011;25088;43.238;23.110;2023-04-16T07:15:48;0.00;;;0.00;;
39362;SDS011;25088;43.238;23.110;2023-04-16T07:18:13;0.00;;;0.00;;
39362;SDS011;25088;43.238;23.110;2023-04-16T07:20:39;0.00;;;0.00;;
39362;SDS011;25088;43.238;23.110;2023-04-16T07:23:05;0.00;;;0.00;;
39362;SDS011;25088;43.238;23.110;2023-04-16T07:25:30;0.00;;;0.00;;
39362;SDS011;25088;43.238;23.110;2023-04-16T07:27:56;0.00;;;0.00;;
39362;SDS011;25088;43.238;23.110;2023-04-16T07:30:21;0.00;;;0.00;;
39362;SDS011;25088;43.238;23.110;2023-04-16T07:32:47;0.00;;;0.00;;
39362;SDS011;25088;43.238;23.110;2023-04-16T07:35:12;0.00;;;0.00;;
39362;SDS011;25088;43.238;23.110;2023-04-16T07:37:37;0.00;;;0.00;;
39362;SDS011;25088;43.238;23.110;2023-04-16T07:40:03;0.00;;;0.00;;
39362;SDS011;25088;43.238;23.110;2023-04-16T07:42:29;0.00;;;0.00;;
39362;SDS011;25088;43.238;23.110;2023-04-16T07:44:55;0.00;;;0.00;;
39362;SDS011;25088;43.238;23.110;2023-04-16T07:47:20;0.00;;;0.00;;
39362;SDS011;25088;43.238;23.110;2023-04-16T07:49:47;0.00;;;0.00;;
39362;SDS011;25088;43.238;23.110;2023-04-16T07:52:13;0.00;;;0.00;;
39362;SDS011;25088;43.238;23.110;2023-04-16T07:54:39;0.00;;;0.00;;
39362;SDS011;25088;43.238;23.110;2023-04-16T07:57:05;0.00;;;0.00;;
39362;SDS011;25088;43.238;23.110;2023-04-16T08:02:30;0.00;;;0.00;;
39362;SDS011;25088;43.238;23.110;2023-04-16T08:04:55;0.00;;;0.00;;
39362;SDS011;25088;43.238;23.110;2023-04-16T08:07:21;0.00;;;0.00;;
39362;SDS011;25088;43.238;23.110;2023-04-16T08:09:47;0.00;;;0.00;;
39362;SDS011;25088;43.238;23.110;2023-04-16T08:12:15;0.00;;;0.00;;
39362;SDS011;25088;43.238;23.110;2023-04-16T08:14:42;0.00;;;0.00;;
39362;SDS011;25088;43.238;23.110;2023-04-16T08:17:09;0.00;;;0.00;;
39362;SDS011;25088;43.238;23.110;2023-04-16T08:19:35;0.00;;;0.00;;
39362;SDS011;25088;43.238;23.110;2023-04-16T08:22:00;0.00;;;0.00;;
39362;SDS011;25088;43.238;23.110;2023-04-16T08:24:26;0.00;;;0.00;;
39362;SDS011;25088;43.238;23.110;2023-04-16T08:26:51;0.00;;;0.00;;
39362;SDS011;25088;43.238;23.110;2023-04-16T08:29:17;0.00;;;0.00;;
39362;SDS011;25088;43.238;23.110;2023-04-16T08:31:42;0.00;;;0.00;;
39362;SDS011;25088;43.238;23.110;2023-04-16T08:34:08;0.00;;;0.00;;
39362;SDS011;25088;43.238;23.110;2023-04-16T08:36:35;0.00;;;0.00;;
39362;SDS011;25088;43.238;23.110;2023-04-16T08:39:01;0.00;;;0.00;;
39362;SDS011;25088;43.238;23.110;2023-04-16T08:41:26;0.00;;;0.00;;
39362;SDS011;25088;43.238;23.110;2023-04-16T08:43:55;0.00;;;0.00;;
39362;SDS011;25088;43.238;23.110;2023-04-16T08:46:24;0.00;;;0.00;;
39362;SDS011;25088;43.238;23.110;2023-04-16T08:48:52;0.00;;;0.00;;
39362;SDS011;25088;43.238;23.110;2023-04-16T08:51:21;0.00;;;0.00;;
39362;SDS011;25088;43.238;23.110;2023-04-16T08:53:51;0.00;;;0.00;;
39362;SDS011;25088;43.238;23.110;2023-04-16T08:56:19;0.00;;;0.00;;
39362;SDS011;25088;43.238;23.110;2023-04-16T08:58:47;0.00;;;0.00;;
39362;SDS011;25088;43.238;23.110;2023-04-16T09:01:15;0.00;;;0.00;;
39362;SDS011;25088;43.238;23.110;2023-04-16T09:03:43;0.00;;;0.00;;
39362;SDS011;25088;43.238;23.110;2023-04-16T09:06:10;0.00;;;0.00;;
39362;SDS011;25088;43.238;23.110;2023-04-16T09:08:36;0.00;;;0.00;;
39362;SDS011;25088;43.238;23.110;2023-04-16T09:11:03;0.00;;;0.00;;
39362;SDS011;25088;43.238;23.110;2023-04-16T09:13:29;0.00;;;0.00;;
39362;SDS011;25088;43.238;23.110;2023-04-16T09:15:55;0.00;;;0.00;;
39362;SDS011;25088;43.238;23.110;2023-04-16T09:18:21;0.00;;;0.00;;
39362;SDS011;25088;43.238;23.110;2023-04-16T09:20:48;0.00;;;0.00;;
39362;SDS011;25088;43.238;23.110;2023-04-16T09:23:15;0.00;;;0.00;;
39362;SDS011;25088;43.238;23.110;2023-04-16T09:25:40;0.00;;;0.00;;
39362;SDS011;25088;43.238;23.110;2023-04-16T09:28:05;0.00;;;0.00;;
39362;SDS011;25088;43.238;23.110;2023-04-16T09:30:31;0.00;;;0.00;;
39362;SDS011;25088;43.238;23.110;2023-04-16T09:35:55;0.00;;;0.00;;
39362;SDS011;25088;43.238;23.110;2023-04-16T09:38:21;0.00;;;0.00;;
39362;SDS011;25088;43.238;23.110;2023-04-16T09:40:46;0.00;;;0.00;;
39362;SDS011;25088;43.238;23.110;2023-04-16T09:43:16;0.00;;;0.00;;
39362;SDS011;25088;43.238;23.110;2023-04-16T09:45:51;0.00;;;0.00;;
39362;SDS011;25088;43.238;23.110;2023-04-16T09:48:31;0.00;;;0.00;;
39362;SDS011;25088;43.238;23.110;2023-04-16T09:50:57;0.00;;;0.00;;
39362;SDS011;25088;43.238;23.110;2023-04-16T09:53:24;0.00;;;0.00;;
39362;SDS011;25088;43.238;23.110;2023-04-16T09:55:51;0.00;;;0.00;;
39362;SDS011;25088;43.238;23.110;2023-04-16T09:58:23;0.00;;;0.00;;
39362;SDS011;25088;43.238;23.110;2023-04-16T10:00:54;0.00;;;0.00;;
39362;SDS011;25088;43.238;23.110;2023-04-16T10:03:29;0.00;;;0.00;;
39362;SDS011;25088;43.238;23.110;2023-04-16T10:05:58;0.00;;;0.00;;
39362;SDS011;25088;43.238;23.110;2023-04-16T10:08:25;0.00;;;0.00;;
39362;SDS011;25088;43.238;23.110;2023-04-16T10:10:52;0.00;;;0.00;;
39362;SDS011;25088;43.238;23.110;2023-04-16T10:13:18;0.00;;;0.00;;
39362;SDS011;25088;43.238;23.110;2023-04-16T10:15:43;0.00;;;0.00;;
39362;SDS011;25088;43.238;23.110;2023-04-16T10:18:10;0.00;;;0.00;;
39362;SDS011;25088;43.238;23.110;2023-04-16T10:20:36;0.00;;;0.00;;
39362;SDS011;25088;43.238;23.110;2023-04-16T10:23:01;0.00;;;0.00;;
39362;SDS011;25088;43.238;23.110;2023-04-16T10:25:27;0.00;;;0.00;;
39362;SDS011;25088;43.238;23.110;2023-04-16T10:27:53;0.00;;;0.00;;
39362;SDS011;25088;43.238;23.110;2023-04-16T10:30:20;0.00;;;0.00;;
39362;SDS011;25088;43.238;23.110;2023-04-16T10:32:46;0.00;;;0.00;;
39362;SDS011;25088;43.238;23.110;2023-04-16T10:35:19;0.00;;;0.00;;
39362;SDS011;25088;43.238;23.110;2023-04-16T10:37:45;0.00;;;0.00;;
39362;SDS011;25088;43.238;23.110;2023-04-16T10:40:24;0.00;;;0.00;;
39362;SDS011;25088;43.238;23.110;2023-04-16T10:42:54;0.00;;;0.00;;
39362;SDS011;25088;43.238;23.110;2023-04-16T10:45:25;0.00;;;0.00;;
39362;SDS011;25088;43.238;23.110;2023-04-16T10:47:54;0.00;;;0.00;;
39362;SDS011;25088;43.238;23.110;2023-04-16T10:50:21;0.00;;;0.00;;
39362;SDS011;25088;43.238;23.110;2023-04-16T10:52:46;0.00;;;0.00;;
39362;SDS011;25088;43.238;23.110;2023-04-16T10:55:15;0.00;;;0.00;;
39362;SDS011;25088;43.238;23.110;2023-04-16T10:57:41;0.00;;;0.00;;
39362;SDS011;25088;43.238;23.110;2023-04-16T11:00:20;0.00;;;0.00;;
39362;SDS011;25088;43.238;23.110;2023-04-16T11:02:46;0.00;;;0.00;;
39362;SDS011;25088;43.238;23.110;2023-04-16T11:05:20;0.00;;;0.00;;
39362;SDS011;25088;43.238;23.110;2023-04-16T11:07:47;0.00;;;0.00;;
39362;SDS011;25088;43.238;23.110;2023-04-16T11:10:13;0.00;;;0.00;;
39362;SDS011;25088;43.238;23.110;2023-04-16T11:12:42;0.00;;;0.00;;
39362;SDS011;25088;43.238;23.110;2023-04-16T11:15:11;0.00;;;0.00;;
39362;SDS011;25088;43.238;23.110;2023-04-16T11:17:42;0.00;;;0.00;;
39362;SDS011;25088;43.238;23.110;2023-04-16T11:20:15;0.00;;;0.00;;
39362;SDS011;25088;43.238;23.110;2023-04-16T11:22:44;0.00;;;0.00;;
39362;SDS011;25088;43.238;23.110;2023-04-16T11:25:10;0.00;;;0.00;;
39362;SDS011;25088;43.238;23.110;2023-04-16T11:27:36;0.00;;;0.00;;
39362;SDS011;25088;43.238;23.110;2023-04-16T11:30:03;0.00;;;0.00;;
39362;SDS011;25088;43.238;23.110;2023-04-16T11:32:30;0.00;;;0.00;;
39362;SDS011;25088;43.238;23.110;2023-04-16T11:34:57;0.00;;;0.00;;
39362;SDS011;25088;43.238;23.110;2023-04-16T11:37:30;0.00;;;0.00;;
39362;SDS011;25088;43.238;23.110;2023-04-16T11:39:58;0.00;;;0.00;;
39362;SDS011;25088;43.238;23.110;2023-04-16T11:42:23;0.00;;;0.00;;
39362;SDS011;25088;43.238;23.110;2023-04-16T11:44:54;0.00;;;0.00;;
39362;SDS011;25088;43.238;23.110;2023-04-16T11:47:21;0.00;;;0.00;;
39362;SDS011;25088;43.238;23.110;2023-04-16T11:49:50;0.00;;;0.00;;
39362;SDS011;25088;43.238;23.110;2023-04-16T11:52:28;0.00;;;0.00;;
39362;SDS011;25088;43.238;23.110;2023-04-16T11:54:58;0.00;;;0.00;;
39362;SDS011;25088;43.238;23.110;2023-04-16T11:57:24;0.00;;;0.00;;
39362;SDS011;25088;43.238;23.110;2023-04-16T11:59:54;0.00;;;0.00;;
39362;SDS011;25088;43.238;23.110;2023-04-16T12:07:56;0.00;;;0.00;;
39362;SDS011;25088;43.238;23.110;2023-04-16T12:10:32;0.00;;;0.00;;
39362;SDS011;25088;43.238;23.110;2023-04-16T12:13:15;0.00;;;0.00;;
39362;SDS011;25088;43.238;23.110;2023-04-16T12:18:14;0.00;;;0.00;;
39362;SDS011;25088;43.238;23.110;2023-04-16T12:20:40;0.00;;;0.00;;
39362;SDS011;25088;43.238;23.110;2023-04-16T12:23:07;0.00;;;0.00;;
39362;SDS011;25088;43.238;23.110;2023-04-16T12:25:32;0.00;;;0.00;;
39362;SDS011;25088;43.238;23.110;2023-04-16T12:27:58;0.00;;;0.00;;
39362;SDS011;25088;43.238;23.110;2023-04-16T12:30:24;0.00;;;0.00;;
39362;SDS011;25088;43.238;23.110;2023-04-16T12:32:52;0.00;;;0.00;;
39362;SDS011;25088;43.238;23.110;2023-04-16T12:35:37;0.00;;;0.00;;
39362;SDS011;25088;43.238;23.110;2023-04-16T12:38:05;0.00;;;0.00;;
39362;SDS011;25088;43.238;23.110;2023-04-16T12:40:32;0.00;;;0.00;;
39362;SDS011;25088;43.238;23.110;2023-04-16T12:42:57;0.00;;;0.00;;
39362;SDS011;25088;43.238;23.110;2023-04-16T12:45:23;0.00;;;0.00;;
39362;SDS011;25088;43.238;23.110;2023-04-16T12:47:49;0.00;;;0.00;;
39362;SDS011;25088;43.238;23.110;2023-04-16T12:50:15;0.00;;;0.00;;
39362;SDS011;25088;43.238;23.110;2023-04-16T12:52:41;0.00;;;0.00;;
39362;SDS011;25088;43.238;23.110;2023-04-16T12:55:07;0.00;;;0.00;;
39362;SDS011;25088;43.238;23.110;2023-04-16T12:57:33;0.00;;;0.00;;
39362;SDS011;25088;43.238;23.110;2023-04-16T12:59:58;0.00;;;0.00;;
39362;SDS011;25088;43.238;23.110;2023-04-16T13:02:24;0.00;;;0.00;;
39362;SDS011;25088;43.238;23.110;2023-04-16T13:04:53;0.00;;;0.00;;
39362;SDS011;25088;43.238;23.110;2023-04-16T13:07:18;0.00;;;0.00;;
39362;SDS011;25088;43.238;23.110;2023-04-16T13:09:45;0.00;;;0.00;;
39362;SDS011;25088;43.238;23.110;2023-04-16T13:12:11;0.00;;;0.00;;
39362;SDS011;25088;43.238;23.110;2023-04-16T13:14:36;0.00;;;0.00;;
39362;SDS011;25088;43.238;23.110;2023-04-16T13:17:02;0.00;;;0.00;;
39362;SDS011;25088;43.238;23.110;2023-04-16T13:19:28;0.00;;;0.00;;
39362;SDS011;25088;43.238;23.110;2023-04-16T13:21:54;0.00;;;0.00;;
39362;SDS011;25088;43.238;23.110;2023-04-16T13:24:20;0.00;;;0.00;;
39362;SDS011;25088;43.238;23.110;2023-04-16T13:26:45;0.00;;;0.00;;
39362;SDS011;25088;43.238;23.110;2023-04-16T13:29:10;0.00;;;0.00;;
39362;SDS011;25088;43.238;23.110;2023-04-16T13:31:36;0.00;;;0.00;;
39362;SDS011;25088;43.238;23.110;2023-04-16T13:34:02;0.00;;;0.00;;
39362;SDS011;25088;43.238;23.110;2023-04-16T13:36:28;0.00;;;0.00;;
39362;SDS011;25088;43.238;23.110;2023-04-16T13:38:56;0.00;;;0.00;;
39362;SDS011;25088;43.238;23.110;2023-04-16T13:41:22;0.00;;;0.00;;
39362;SDS011;25088;43.238;23.110;2023-04-16T13:43:47;0.00;;;0.00;;
39362;SDS011;25088;43.238;23.110;2023-04-16T13:46:13;0.00;;;0.00;;
39362;SDS011;25088;43.238;23.110;2023-04-16T13:48:38;0.00;;;0.00;;
39362;SDS011;25088;43.238;23.110;2023-04-16T13:51:04;0.00;;;0.00;;
39362;SDS011;25088;43.238;23.110;2023-04-16T13:53:29;0.00;;;0.00;;
39362;SDS011;25088;43.238;23.110;2023-04-16T13:55:55;0.00;;;0.00;;
39362;SDS011;25088;43.238;23.110;2023-04-16T13:58:20;0.00;;;0.00;;
39362;SDS011;25088;43.238;23.110;2023-04-16T14:00:46;0.00;;;0.00;;
39362;SDS011;25088;43.238;23.110;2023-04-16T14:03:12;0.00;;;0.00;;
39362;SDS011;25088;43.238;23.110;2023-04-16T14:05:37;0.00;;;0.00;;
39362;SDS011;25088;43.238;23.110;2023-04-16T14:08:03;0.00;;;0.00;;
39362;SDS011;25088;43.238;23.110;2023-04-16T14:10:29;0.00;;;0.00;;
39362;SDS011;25088;43.238;23.110;2023-04-16T14:12:55;0.00;;;0.00;;
39362;SDS011;25088;43.238;23.110;2023-04-16T14:15:21;0.00;;;0.00;;
39362;SDS011;25088;43.238;23.110;2023-04-16T14:17:46;0.10;;;0.10;;
39362;SDS011;25088;43.238;23.110;2023-04-16T14:20:12;0.00;;;0.00;;
39362;SDS011;25088;43.238;23.110;2023-04-16T14:22:38;0.00;;;0.00;;
39362;SDS011;25088;43.238;23.110;2023-04-16T14:25:04;0.00;;;0.00;;
39362;SDS011;25088;43.238;23.110;2023-04-16T14:27:30;0.00;;;0.00;;
39362;SDS011;25088;43.238;23.110;2023-04-16T14:29:55;0.00;;;0.00;;
39362;SDS011;25088;43.238;23.110;2023-04-16T14:32:22;0.00;;;0.00;;
39362;SDS011;25088;43.238;23.110;2023-04-16T14:34:50;0.00;;;0.00;;
39362;SDS011;25088;43.238;23.110;2023-04-16T14:37:16;0.00;;;0.00;;
39362;SDS011;25088;43.238;23.110;2023-04-16T14:39:42;0.00;;;0.00;;
39362;SDS011;25088;43.238;23.110;2023-04-16T14:42:08;0.00;;;0.00;;